Terminal Aerodrome Forecast
Issued by NWS Blacksburg, VA

Current Version | Previous Version | Text Only | Print | Product List | Glossary Off
Versions: 1 2 3 4 5 6 7 8 9 10 11 12 13

000
FTUS41 KRNK 191720
TAFBLF
TAF
KBLF 191720Z 1918/2018 25009KT P6SM VCTS SCT035CB OVC050
     FM192300 27007KT P6SM VCSH SCT050
     FM200300 27007KT P6SM FEW050 SCT080
     FM201200 VRB03KT P6SM FEW250=

USA.gov is the U.S. government's official web portal to all federal, state and local government web resources and services.